sensor_id;sensor_type;location;lat;lon;timestamp;P1;durP1;ratioP1;P2;durP2;ratioP2
21190;SDS011;10753;52.304;20.990;2022-07-12T00:01:05;3.37;;;3.03;;
21190;SDS011;10753;52.304;20.990;2022-07-12T00:03:31;5.33;;;3.27;;
21190;SDS011;10753;52.304;20.990;2022-07-12T00:05:57;6.60;;;3.47;;
21190;SDS011;10753;52.304;20.990;2022-07-12T00:08:23;3.97;;;3.57;;
21190;SDS011;10753;52.304;20.990;2022-07-12T00:10:48;7.27;;;4.00;;
21190;SDS011;10753;52.304;20.990;2022-07-12T00:13:15;4.47;;;3.87;;
21190;SDS011;10753;52.304;20.990;2022-07-12T00:15:41;7.27;;;3.70;;
21190;SDS011;10753;52.304;20.990;2022-07-12T00:18:07;6.30;;;3.70;;
21190;SDS011;10753;52.304;20.990;2022-07-12T00:20:33;4.90;;;3.97;;
21190;SDS011;10753;52.304;20.990;2022-07-12T00:22:59;6.30;;;3.50;;
21190;SDS011;10753;52.304;20.990;2022-07-12T00:25:25;5.53;;;3.63;;
21190;SDS011;10753;52.304;20.990;2022-07-12T00:27:51;5.40;;;3.73;;
21190;SDS011;10753;52.304;20.990;2022-07-12T00:30:17;6.27;;;3.90;;
21190;SDS011;10753;52.304;20.990;2022-07-12T00:32:43;6.23;;;4.00;;
21190;SDS011;10753;52.304;20.990;2022-07-12T00:35:09;4.83;;;4.17;;
21190;SDS011;10753;52.304;20.990;2022-07-12T00:37:35;5.93;;;4.00;;
21190;SDS011;10753;52.304;20.990;2022-07-12T00:40:01;4.37;;;3.97;;
21190;SDS011;10753;52.304;20.990;2022-07-12T00:42:29;4.27;;;3.87;;
21190;SDS011;10753;52.304;20.990;2022-07-12T00:44:55;4.47;;;4.07;;
21190;SDS011;10753;52.304;20.990;2022-07-12T00:47:34;4.50;;;4.07;;
21190;SDS011;10753;52.304;20.990;2022-07-12T00:52:31;6.17;;;4.60;;
21190;SDS011;10753;52.304;20.990;2022-07-12T00:54:57;4.97;;;3.93;;
21190;SDS011;10753;52.304;20.990;2022-07-12T00:57:23;6.90;;;4.10;;
21190;SDS011;10753;52.304;20.990;2022-07-12T00:59:48;6.07;;;4.07;;
21190;SDS011;10753;52.304;20.990;2022-07-12T01:02:15;5.70;;;4.13;;
21190;SDS011;10753;52.304;20.990;2022-07-12T01:04:40;6.53;;;4.37;;
21190;SDS011;10753;52.304;20.990;2022-07-12T01:07:08;6.67;;;4.20;;
21190;SDS011;10753;52.304;20.990;2022-07-12T01:09:33;5.70;;;4.07;;
21190;SDS011;10753;52.304;20.990;2022-07-12T01:11:59;7.10;;;4.17;;
21190;SDS011;10753;52.304;20.990;2022-07-12T01:14:25;8.07;;;3.97;;
21190;SDS011;10753;52.304;20.990;2022-07-12T01:16:52;5.67;;;4.33;;
21190;SDS011;10753;52.304;20.990;2022-07-12T01:19:19;6.15;;;4.35;;
21190;SDS011;10753;52.304;20.990;2022-07-12T01:21:46;7.00;;;4.73;;
21190;SDS011;10753;52.304;20.990;2022-07-12T01:24:15;9.23;;;5.10;;
21190;SDS011;10753;52.304;20.990;2022-07-12T01:26:43;6.67;;;4.87;;
21190;SDS011;10753;52.304;20.990;2022-07-12T01:29:09;9.17;;;4.93;;
21190;SDS011;10753;52.304;20.990;2022-07-12T01:31:35;5.90;;;5.27;;
21190;SDS011;10753;52.304;20.990;2022-07-12T01:34:02;8.30;;;5.13;;
21190;SDS011;10753;52.304;20.990;2022-07-12T01:36:29;6.17;;;5.13;;
21190;SDS011;10753;52.304;20.990;2022-07-12T01:38:55;7.23;;;5.47;;
21190;SDS011;10753;52.304;20.990;2022-07-12T01:41:21;7.00;;;5.33;;
21190;SDS011;10753;52.304;20.990;2022-07-12T01:43:48;13.60;;;5.90;;
21190;SDS011;10753;52.304;20.990;2022-07-12T01:46:15;9.27;;;6.20;;
21190;SDS011;10753;52.304;20.990;2022-07-12T01:48:41;9.37;;;6.27;;
21190;SDS011;10753;52.304;20.990;2022-07-12T01:51:06;12.23;;;6.10;;
21190;SDS011;10753;52.304;20.990;2022-07-12T01:53:32;7.23;;;6.03;;
21190;SDS011;10753;52.304;20.990;2022-07-12T01:55:59;9.30;;;6.07;;
21190;SDS011;10753;52.304;20.990;2022-07-12T01:58:25;6.97;;;6.23;;
21190;SDS011;10753;52.304;20.990;2022-07-12T02:00:50;8.43;;;6.70;;
21190;SDS011;10753;52.304;20.990;2022-07-12T02:03:20;11.50;;;6.97;;
21190;SDS011;10753;52.304;20.990;2022-07-12T02:05:46;11.70;;;6.80;;
21190;SDS011;10753;52.304;20.990;2022-07-12T02:08:15;11.10;;;6.93;;
21190;SDS011;10753;52.304;20.990;2022-07-12T02:10:41;6.30;;;5.80;;
21190;SDS011;10753;52.304;20.990;2022-07-12T02:13:07;13.40;;;6.30;;
21190;SDS011;10753;52.304;20.990;2022-07-12T02:15:33;9.87;;;6.83;;
21190;SDS011;10753;52.304;20.990;2022-07-12T02:17:59;8.23;;;6.73;;
21190;SDS011;10753;52.304;20.990;2022-07-12T02:20:25;8.30;;;6.00;;
21190;SDS011;10753;52.304;20.990;2022-07-12T02:22:50;9.30;;;6.47;;
21190;SDS011;10753;52.304;20.990;2022-07-12T02:25:16;8.30;;;6.03;;
21190;SDS011;10753;52.304;20.990;2022-07-12T02:27:42;7.40;;;5.23;;
21190;SDS011;10753;52.304;20.990;2022-07-12T02:30:08;7.40;;;5.23;;
21190;SDS011;10753;52.304;20.990;2022-07-12T02:32:34;7.23;;;5.40;;
21190;SDS011;10753;52.304;20.990;2022-07-12T02:35:01;7.60;;;5.57;;
21190;SDS011;10753;52.304;20.990;2022-07-12T02:37:27;6.50;;;5.13;;
21190;SDS011;10753;52.304;20.990;2022-07-12T02:39:53;6.87;;;4.43;;
21190;SDS011;10753;52.304;20.990;2022-07-12T02:42:38;12.93;;;5.00;;
21190;SDS011;10753;52.304;20.990;2022-07-12T02:45:04;5.67;;;5.03;;
21190;SDS011;10753;52.304;20.990;2022-07-12T02:47:30;4.93;;;4.43;;
21190;SDS011;10753;52.304;20.990;2022-07-12T02:49:57;9.70;;;4.47;;
21190;SDS011;10753;52.304;20.990;2022-07-12T02:52:23;6.97;;;3.83;;
21190;SDS011;10753;52.304;20.990;2022-07-12T02:54:49;8.50;;;4.73;;
21190;SDS011;10753;52.304;20.990;2022-07-12T02:57:15;6.87;;;4.40;;
21190;SDS011;10753;52.304;20.990;2022-07-12T02:59:40;6.73;;;3.67;;
21190;SDS011;10753;52.304;20.990;2022-07-12T03:02:06;4.50;;;3.73;;
21190;SDS011;10753;52.304;20.990;2022-07-12T03:04:31;9.33;;;4.93;;
21190;SDS011;10753;52.304;20.990;2022-07-12T03:06:57;6.00;;;4.17;;
21190;SDS011;10753;52.304;20.990;2022-07-12T03:09:23;8.60;;;4.40;;
21190;SDS011;10753;52.304;20.990;2022-07-12T03:11:48;6.83;;;4.40;;
21190;SDS011;10753;52.304;20.990;2022-07-12T03:14:14;8.57;;;4.20;;
21190;SDS011;10753;52.304;20.990;2022-07-12T03:16:39;5.43;;;4.40;;
21190;SDS011;10753;52.304;20.990;2022-07-12T03:19:05;5.70;;;3.63;;
21190;SDS011;10753;52.304;20.990;2022-07-12T03:21:30;5.30;;;4.20;;
21190;SDS011;10753;52.304;20.990;2022-07-12T03:23:56;5.67;;;3.43;;
21190;SDS011;10753;52.304;20.990;2022-07-12T03:26:22;7.07;;;4.23;;
21190;SDS011;10753;52.304;20.990;2022-07-12T03:28:48;5.57;;;3.93;;
21190;SDS011;10753;52.304;20.990;2022-07-12T03:31:14;6.05;;;3.88;;
21190;SDS011;10753;52.304;20.990;2022-07-12T03:33:39;7.03;;;3.80;;
21190;SDS011;10753;52.304;20.990;2022-07-12T03:36:05;8.05;;;4.20;;
21190;SDS011;10753;52.304;20.990;2022-07-12T03:38:33;8.27;;;4.07;;
21190;SDS011;10753;52.304;20.990;2022-07-12T03:40:59;5.50;;;3.38;;
21190;SDS011;10753;52.304;20.990;2022-07-12T03:43:25;6.22;;;3.58;;
21190;SDS011;10753;52.304;20.990;2022-07-12T03:45:51;8.88;;;4.07;;
21190;SDS011;10753;52.304;20.990;2022-07-12T03:48:16;4.47;;;3.50;;
21190;SDS011;10753;52.304;20.990;2022-07-12T03:50:42;8.20;;;3.30;;
21190;SDS011;10753;52.304;20.990;2022-07-12T03:53:08;6.32;;;3.50;;
21190;SDS011;10753;52.304;20.990;2022-07-12T03:55:33;3.25;;;2.53;;
21190;SDS011;10753;52.304;20.990;2022-07-12T03:57:59;5.28;;;3.80;;
21190;SDS011;10753;52.304;20.990;2022-07-12T04:00:24;5.18;;;3.33;;
21190;SDS011;10753;52.304;20.990;2022-07-12T04:02:50;6.18;;;3.65;;
21190;SDS011;10753;52.304;20.990;2022-07-12T04:05:18;6.13;;;3.53;;
21190;SDS011;10753;52.304;20.990;2022-07-12T04:07:45;6.03;;;3.25;;
21190;SDS011;10753;52.304;20.990;2022-07-12T04:10:10;4.75;;;3.25;;
21190;SDS011;10753;52.304;20.990;2022-07-12T04:12:36;5.63;;;2.60;;
21190;SDS011;10753;52.304;20.990;2022-07-12T04:15:03;5.53;;;3.10;;
21190;SDS011;10753;52.304;20.990;2022-07-12T04:17:29;4.50;;;3.83;;
21190;SDS011;10753;52.304;20.990;2022-07-12T04:19:55;4.57;;;3.20;;
21190;SDS011;10753;52.304;20.990;2022-07-12T04:22:21;7.38;;;3.30;;
21190;SDS011;10753;52.304;20.990;2022-07-12T04:24:46;9.32;;;3.50;;
21190;SDS011;10753;52.304;20.990;2022-07-12T04:27:12;6.47;;;3.70;;
21190;SDS011;10753;52.304;20.990;2022-07-12T04:29:37;5.35;;;3.70;;
21190;SDS011;10753;52.304;20.990;2022-07-12T04:32:03;5.70;;;3.28;;
21190;SDS011;10753;52.304;20.990;2022-07-12T04:34:29;4.95;;;3.53;;
21190;SDS011;10753;52.304;20.990;2022-07-12T04:36:55;6.80;;;3.38;;
21190;SDS011;10753;52.304;20.990;2022-07-12T04:39:20;7.35;;;3.17;;
21190;SDS011;10753;52.304;20.990;2022-07-12T04:41:46;7.05;;;4.38;;
21190;SDS011;10753;52.304;20.990;2022-07-12T04:44:11;5.15;;;3.42;;
21190;SDS011;10753;52.304;20.990;2022-07-12T04:46:37;7.60;;;4.40;;
21190;SDS011;10753;52.304;20.990;2022-07-12T04:49:03;4.90;;;3.53;;
21190;SDS011;10753;52.304;20.990;2022-07-12T04:51:28;5.57;;;4.65;;
21190;SDS011;10753;52.304;20.990;2022-07-12T04:53:54;4.90;;;2.95;;
21190;SDS011;10753;52.304;20.990;2022-07-12T04:56:20;5.15;;;3.05;;
21190;SDS011;10753;52.304;20.990;2022-07-12T04:58:45;6.13;;;3.40;;
21190;SDS011;10753;52.304;20.990;2022-07-12T05:01:11;4.78;;;3.78;;
21190;SDS011;10753;52.304;20.990;2022-07-12T05:03:38;4.75;;;4.30;;
21190;SDS011;10753;52.304;20.990;2022-07-12T05:06:03;11.30;;;4.20;;
21190;SDS011;10753;52.304;20.990;2022-07-12T05:08:29;8.70;;;3.47;;
21190;SDS011;10753;52.304;20.990;2022-07-12T05:10:54;10.73;;;4.32;;
21190;SDS011;10753;52.304;20.990;2022-07-12T05:13:20;7.35;;;4.00;;
21190;SDS011;10753;52.304;20.990;2022-07-12T05:15:46;5.68;;;3.67;;
21190;SDS011;10753;52.304;20.990;2022-07-12T05:18:11;7.95;;;4.13;;
21190;SDS011;10753;52.304;20.990;2022-07-12T05:20:38;8.13;;;4.28;;
21190;SDS011;10753;52.304;20.990;2022-07-12T05:23:03;7.93;;;3.70;;
21190;SDS011;10753;52.304;20.990;2022-07-12T05:25:29;4.18;;;3.28;;
21190;SDS011;10753;52.304;20.990;2022-07-12T05:27:54;5.80;;;2.80;;
21190;SDS011;10753;52.304;20.990;2022-07-12T05:30:20;4.65;;;3.25;;
21190;SDS011;10753;52.304;20.990;2022-07-12T05:32:46;7.28;;;2.97;;
21190;SDS011;10753;52.304;20.990;2022-07-12T05:35:12;4.47;;;3.22;;
21190;SDS011;10753;52.304;20.990;2022-07-12T05:37:37;5.45;;;3.05;;
21190;SDS011;10753;52.304;20.990;2022-07-12T05:40:03;9.52;;;2.90;;
21190;SDS011;10753;52.304;20.990;2022-07-12T05:42:29;9.98;;;3.08;;
21190;SDS011;10753;52.304;20.990;2022-07-12T05:44:54;7.05;;;3.00;;
21190;SDS011;10753;52.304;20.990;2022-07-12T05:47:20;6.32;;;3.05;;
21190;SDS011;10753;52.304;20.990;2022-07-12T05:49:46;4.75;;;3.28;;
21190;SDS011;10753;52.304;20.990;2022-07-12T05:52:11;4.82;;;2.58;;
21190;SDS011;10753;52.304;20.990;2022-07-12T05:54:55;6.35;;;2.35;;
21190;SDS011;10753;52.304;20.990;2022-07-12T05:57:21;4.45;;;2.00;;
21190;SDS011;10753;52.304;20.990;2022-07-12T05:59:47;4.53;;;1.98;;
21190;SDS011;10753;52.304;20.990;2022-07-12T06:02:13;6.65;;;2.17;;
21190;SDS011;10753;52.304;20.990;2022-07-12T06:04:38;8.43;;;2.30;;
21190;SDS011;10753;52.304;20.990;2022-07-12T06:07:04;6.22;;;1.90;;
21190;SDS011;10753;52.304;20.990;2022-07-12T06:09:30;4.43;;;1.98;;
21190;SDS011;10753;52.304;20.990;2022-07-12T06:11:56;3.97;;;1.90;;
21190;SDS011;10753;52.304;20.990;2022-07-12T06:14:22;5.03;;;2.00;;
21190;SDS011;10753;52.304;20.990;2022-07-12T06:16:48;5.63;;;1.90;;
21190;SDS011;10753;52.304;20.990;2022-07-12T06:19:13;4.47;;;1.70;;
21190;SDS011;10753;52.304;20.990;2022-07-12T06:21:39;5.53;;;2.33;;
21190;SDS011;10753;52.304;20.990;2022-07-12T06:24:04;5.78;;;1.75;;
21190;SDS011;10753;52.304;20.990;2022-07-12T06:26:30;2.33;;;1.50;;
21190;SDS011;10753;52.304;20.990;2022-07-12T06:28:56;3.80;;;1.77;;
21190;SDS011;10753;52.304;20.990;2022-07-12T06:31:21;3.78;;;1.63;;
21190;SDS011;10753;52.304;20.990;2022-07-12T06:33:48;2.88;;;1.30;;
21190;SDS011;10753;52.304;20.990;2022-07-12T06:36:14;3.75;;;1.60;;
21190;SDS011;10753;52.304;20.990;2022-07-12T06:38:40;4.97;;;1.52;;
21190;SDS011;10753;52.304;20.990;2022-07-12T06:41:06;4.20;;;1.30;;
21190;SDS011;10753;52.304;20.990;2022-07-12T06:43:31;4.07;;;1.80;;
21190;SDS011;10753;52.304;20.990;2022-07-12T06:45:57;5.68;;;1.48;;
21190;SDS011;10753;52.304;20.990;2022-07-12T06:48:22;8.27;;;1.40;;
21190;SDS011;10753;52.304;20.990;2022-07-12T06:50:48;4.38;;;1.48;;
21190;SDS011;10753;52.304;20.990;2022-07-12T06:53:13;3.33;;;1.40;;
21190;SDS011;10753;52.304;20.990;2022-07-12T06:55:39;1.92;;;1.10;;
21190;SDS011;10753;52.304;20.990;2022-07-12T06:58:07;2.47;;;1.40;;
21190;SDS011;10753;52.304;20.990;2022-07-12T07:00:33;2.83;;;1.30;;
21190;SDS011;10753;52.304;20.990;2022-07-12T07:02:58;5.75;;;1.10;;
21190;SDS011;10753;52.304;20.990;2022-07-12T07:05:24;3.15;;;1.30;;
21190;SDS011;10753;52.304;20.990;2022-07-12T07:07:50;3.85;;;1.20;;
21190;SDS011;10753;52.304;20.990;2022-07-12T07:10:15;6.50;;;1.00;;
21190;SDS011;10753;52.304;20.990;2022-07-12T07:12:41;4.20;;;1.20;;
21190;SDS011;10753;52.304;20.990;2022-07-12T07:15:07;1.80;;;1.02;;
21190;SDS011;10753;52.304;20.990;2022-07-12T07:17:33;3.25;;;1.27;;
21190;SDS011;10753;52.304;20.990;2022-07-12T07:19:59;2.25;;;0.90;;
21190;SDS011;10753;52.304;20.990;2022-07-12T07:22:25;4.63;;;1.58;;
21190;SDS011;10753;52.304;20.990;2022-07-12T07:24:52;1.67;;;1.10;;
21190;SDS011;10753;52.304;20.990;2022-07-12T07:27:18;2.33;;;1.42;;
21190;SDS011;10753;52.304;20.990;2022-07-12T07:29:43;2.90;;;1.30;;
21190;SDS011;10753;52.304;20.990;2022-07-12T07:32:28;3.88;;;1.33;;
21190;SDS011;10753;52.304;20.990;2022-07-12T07:34:53;1.50;;;0.80;;
21190;SDS011;10753;52.304;20.990;2022-07-12T07:37:19;5.05;;;1.00;;
21190;SDS011;10753;52.304;20.990;2022-07-12T07:39:44;2.30;;;1.00;;
21190;SDS011;10753;52.304;20.990;2022-07-12T07:42:10;5.22;;;1.00;;
21190;SDS011;10753;52.304;20.990;2022-07-12T07:44:35;3.20;;;1.00;;
21190;SDS011;10753;52.304;20.990;2022-07-12T07:47:01;2.05;;;1.00;;
21190;SDS011;10753;52.304;20.990;2022-07-12T07:49:27;1.67;;;1.17;;
21190;SDS011;10753;52.304;20.990;2022-07-12T07:51:53;1.80;;;1.10;;
21190;SDS011;10753;52.304;20.990;2022-07-12T07:54:19;3.60;;;0.90;;
21190;SDS011;10753;52.304;20.990;2022-07-12T07:56:44;2.88;;;0.98;;
21190;SDS011;10753;52.304;20.990;2022-07-12T07:59:10;2.63;;;1.08;;
21190;SDS011;10753;52.304;20.990;2022-07-12T08:01:36;2.25;;;1.08;;
21190;SDS011;10753;52.304;20.990;2022-07-12T08:04:14;1.05;;;1.00;;
21190;SDS011;10753;52.304;20.990;2022-07-12T08:06:40;3.78;;;0.80;;
21190;SDS011;10753;52.304;20.990;2022-07-12T08:09:07;4.20;;;1.13;;
21190;SDS011;10753;52.304;20.990;2022-07-12T08:11:33;3.08;;;1.00;;
21190;SDS011;10753;52.304;20.990;2022-07-12T08:14:00;2.20;;;1.40;;
21190;SDS011;10753;52.304;20.990;2022-07-12T08:16:26;2.05;;;1.00;;
21190;SDS011;10753;52.304;20.990;2022-07-12T08:18:52;2.60;;;1.10;;
21190;SDS011;10753;52.304;20.990;2022-07-12T08:21:19;3.10;;;1.00;;
21190;SDS011;10753;52.304;20.990;2022-07-12T08:23:44;4.03;;;1.60;;
21190;SDS011;10753;52.304;20.990;2022-07-12T08:26:10;2.58;;;1.20;;
21190;SDS011;10753;52.304;20.990;2022-07-12T08:28:36;2.85;;;1.38;;
21190;SDS011;10753;52.304;20.990;2022-07-12T08:31:01;3.42;;;1.42;;
21190;SDS011;10753;52.304;20.990;2022-07-12T08:33:27;2.20;;;1.30;;
21190;SDS011;10753;52.304;20.990;2022-07-12T08:35:52;1.75;;;1.08;;
21190;SDS011;10753;52.304;20.990;2022-07-12T08:38:18;4.68;;;1.30;;
21190;SDS011;10753;52.304;20.990;2022-07-12T08:40:43;2.13;;;1.20;;
21190;SDS011;10753;52.304;20.990;2022-07-12T08:43:09;3.42;;;1.30;;
21190;SDS011;10753;52.304;20.990;2022-07-12T08:45:35;1.83;;;1.10;;
21190;SDS011;10753;52.304;20.990;2022-07-12T08:48:01;5.28;;;1.60;;
21190;SDS011;10753;52.304;20.990;2022-07-12T08:50:26;2.72;;;1.10;;
21190;SDS011;10753;52.304;20.990;2022-07-12T08:52:53;2.28;;;1.10;;
21190;SDS011;10753;52.304;20.990;2022-07-12T08:55:21;5.07;;;1.60;;
21190;SDS011;10753;52.304;20.990;2022-07-12T08:57:50;4.15;;;1.73;;
21190;SDS011;10753;52.304;20.990;2022-07-12T09:00:17;3.42;;;1.13;;
21190;SDS011;10753;52.304;20.990;2022-07-12T09:02:43;2.15;;;1.00;;
21190;SDS011;10753;52.304;20.990;2022-07-12T09:05:11;4.15;;;1.10;;
21190;SDS011;10753;52.304;20.990;2022-07-12T09:07:37;1.92;;;1.00;;
21190;SDS011;10753;52.304;20.990;2022-07-12T09:10:03;2.63;;;1.02;;
21190;SDS011;10753;52.304;20.990;2022-07-12T09:12:32;2.65;;;1.08;;
21190;SDS011;10753;52.304;20.990;2022-07-12T09:20:28;4.80;;;1.02;;
21190;SDS011;10753;52.304;20.990;2022-07-12T09:22:56;4.20;;;1.17;;
21190;SDS011;10753;52.304;20.990;2022-07-12T09:25:24;1.48;;;0.90;;
21190;SDS011;10753;52.304;20.990;2022-07-12T09:27:51;1.13;;;1.00;;
21190;SDS011;10753;52.304;20.990;2022-07-12T09:30:22;5.25;;;1.63;;
21190;SDS011;10753;52.304;20.990;2022-07-12T09:32:53;2.10;;;1.02;;
21190;SDS011;10753;52.304;20.990;2022-07-12T09:35:40;2.45;;;1.27;;
21190;SDS011;10753;52.304;20.990;2022-07-12T09:38:24;5.50;;;1.02;;
21190;SDS011;10753;52.304;20.990;2022-07-12T09:40:50;4.75;;;0.90;;
21190;SDS011;10753;52.304;20.990;2022-07-12T09:43:16;4.03;;;1.33;;
21190;SDS011;10753;52.304;20.990;2022-07-12T09:45:43;4.40;;;1.23;;
21190;SDS011;10753;52.304;20.990;2022-07-12T09:48:12;2.88;;;1.08;;
21190;SDS011;10753;52.304;20.990;2022-07-12T09:50:38;5.78;;;1.27;;
21190;SDS011;10753;52.304;20.990;2022-07-12T09:53:04;2.05;;;1.10;;
21190;SDS011;10753;52.304;20.990;2022-07-12T09:55:32;2.75;;;1.13;;
21190;SDS011;10753;52.304;20.990;2022-07-12T09:58:00;2.13;;;1.30;;
21190;SDS011;10753;52.304;20.990;2022-07-12T10:00:28;6.35;;;1.15;;
21190;SDS011;10753;52.304;20.990;2022-07-12T10:02:55;2.72;;;1.02;;
21190;SDS011;10753;52.304;20.990;2022-07-12T10:05:23;4.00;;;1.15;;
21190;SDS011;10753;52.304;20.990;2022-07-12T10:07:50;5.15;;;1.25;;
21190;SDS011;10753;52.304;20.990;2022-07-12T10:10:17;2.85;;;0.90;;
21190;SDS011;10753;52.304;20.990;2022-07-12T10:12:43;3.83;;;1.10;;
21190;SDS011;10753;52.304;20.990;2022-07-12T10:15:13;3.60;;;1.10;;
21190;SDS011;10753;52.304;20.990;2022-07-12T10:17:41;2.90;;;1.05;;
21190;SDS011;10753;52.304;20.990;2022-07-12T10:20:19;1.77;;;1.00;;
21190;SDS011;10753;52.304;20.990;2022-07-12T10:22:51;2.63;;;1.17;;
21190;SDS011;10753;52.304;20.990;2022-07-12T10:27:56;3.70;;;1.08;;
21190;SDS011;10753;52.304;20.990;2022-07-12T10:30:23;3.70;;;1.17;;
21190;SDS011;10753;52.304;20.990;2022-07-12T10:32:50;4.15;;;1.00;;
21190;SDS011;10753;52.304;20.990;2022-07-12T10:35:22;1.27;;;1.10;;
21190;SDS011;10753;52.304;20.990;2022-07-12T10:38:13;2.58;;;1.33;;
21190;SDS011;10753;52.304;20.990;2022-07-12T10:40:42;2.58;;;0.90;;
21190;SDS011;10753;52.304;20.990;2022-07-12T10:45:35;2.33;;;0.98;;
21190;SDS011;10753;52.304;20.990;2022-07-12T10:58:39;3.25;;;1.15;;
21190;SDS011;10753;52.304;20.990;2022-07-12T11:01:16;1.63;;;1.08;;
21190;SDS011;10753;52.304;20.990;2022-07-12T11:06:11;4.63;;;0.95;;
21190;SDS011;10753;52.304;20.990;2022-07-12T11:08:51;2.85;;;0.82;;
21190;SDS011;10753;52.304;20.990;2022-07-12T11:11:19;4.00;;;1.05;;
21190;SDS011;10753;52.304;20.990;2022-07-12T11:13:46;1.20;;;0.95;;
21190;SDS011;10753;52.304;20.990;2022-07-12T11:16:11;4.82;;;0.80;;
21190;SDS011;10753;52.304;20.990;2022-07-12T11:18:37;1.65;;;0.85;;
21190;SDS011;10753;52.304;20.990;2022-07-12T11:21:04;1.88;;;0.82;;
21190;SDS011;10753;52.304;20.990;2022-07-12T11:23:31;2.35;;;0.90;;
21190;SDS011;10753;52.304;20.990;2022-07-12T11:25:58;3.92;;;1.13;;
21190;SDS011;10753;52.304;20.990;2022-07-12T11:28:25;1.08;;;0.80;;
21190;SDS011;10753;52.304;20.990;2022-07-12T11:30:53;2.30;;;0.90;;
21190;SDS011;10753;52.304;20.990;2022-07-12T11:33:25;2.97;;;0.85;;
21190;SDS011;10753;52.304;20.990;2022-07-12T11:35:54;5.20;;;0.93;;
21190;SDS011;10753;52.304;20.990;2022-07-12T11:38:28;2.40;;;0.88;;
21190;SDS011;10753;52.304;20.990;2022-07-12T11:40:57;2.53;;;1.00;;
21190;SDS011;10753;52.304;20.990;2022-07-12T11:43:24;2.60;;;0.70;;
21190;SDS011;10753;52.304;20.990;2022-07-12T11:45:51;5.85;;;2.25;;
21190;SDS011;10753;52.304;20.990;2022-07-12T11:48:18;1.60;;;1.13;;
21190;SDS011;10753;52.304;20.990;2022-07-12T11:50:44;4.28;;;1.10;;
21190;SDS011;10753;52.304;20.990;2022-07-12T11:53:17;3.03;;;1.10;;
21190;SDS011;10753;52.304;20.990;2022-07-12T11:55:52;2.63;;;0.90;;
21190;SDS011;10753;52.304;20.990;2022-07-12T11:58:21;3.45;;;1.10;;
21190;SDS011;10753;52.304;20.990;2022-07-12T12:00:48;1.05;;;0.70;;
21190;SDS011;10753;52.304;20.990;2022-07-12T12:03:16;1.88;;;0.90;;
21190;SDS011;10753;52.304;20.990;2022-07-12T12:05:44;2.20;;;1.00;;
21190;SDS011;10753;52.304;20.990;2022-07-12T12:08:11;1.35;;;0.80;;
21190;SDS011;10753;52.304;20.990;2022-07-12T12:10:38;5.20;;;0.93;;
21190;SDS011;10753;52.304;20.990;2022-07-12T12:13:11;4.13;;;0.63;;
21190;SDS011;10753;52.304;20.990;2022-07-12T12:15:40;2.70;;;0.80;;
21190;SDS011;10753;52.304;20.990;2022-07-12T12:18:06;3.95;;;0.88;;
21190;SDS011;10753;52.304;20.990;2022-07-12T12:20:36;3.28;;;0.90;;
21190;SDS011;10753;52.304;20.990;2022-07-12T12:23:04;1.00;;;0.90;;
21190;SDS011;10753;52.304;20.990;2022-07-12T12:25:31;2.83;;;1.00;;
21190;SDS011;10753;52.304;20.990;2022-07-12T12:28:04;1.95;;;0.85;;
21190;SDS011;10753;52.304;20.990;2022-07-12T12:30:30;3.08;;;0.85;;
21190;SDS011;10753;52.304;20.990;2022-07-12T12:33:01;3.53;;;0.90;;
21190;SDS011;10753;52.304;20.990;2022-07-12T12:35:35;1.58;;;0.80;;
21190;SDS011;10753;52.304;20.990;2022-07-12T12:38:03;3.95;;;1.08;;
21190;SDS011;10753;52.304;20.990;2022-07-12T12:40:39;4.90;;;0.82;;
21190;SDS011;10753;52.304;20.990;2022-07-12T12:43:09;1.95;;;1.10;;
21190;SDS011;10753;52.304;20.990;2022-07-12T12:45:36;3.35;;;1.02;;
21190;SDS011;10753;52.304;20.990;2022-07-12T12:48:17;1.52;;;1.00;;
21190;SDS011;10753;52.304;20.990;2022-07-12T12:50:50;2.35;;;0.70;;
21190;SDS011;10753;52.304;20.990;2022-07-12T12:53:20;10.43;;;1.13;;
21190;SDS011;10753;52.304;20.990;2022-07-12T12:55:48;1.48;;;1.00;;
21190;SDS011;10753;52.304;20.990;2022-07-12T12:58:16;5.18;;;1.08;;
21190;SDS011;10753;52.304;20.990;2022-07-12T13:00:44;2.92;;;0.85;;
21190;SDS011;10753;52.304;20.990;2022-07-12T13:03:12;3.17;;;0.90;;
21190;SDS011;10753;52.304;20.990;2022-07-12T13:05:39;0.93;;;0.88;;
21190;SDS011;10753;52.304;20.990;2022-07-12T13:08:05;2.88;;;0.90;;
21190;SDS011;10753;52.304;20.990;2022-07-12T13:10:33;0.80;;;0.70;;
21190;SDS011;10753;52.304;20.990;2022-07-12T13:12:59;3.67;;;0.90;;
21190;SDS011;10753;52.304;20.990;2022-07-12T13:15:26;6.10;;;1.20;;
21190;SDS011;10753;52.304;20.990;2022-07-12T13:17:52;1.85;;;1.02;;
21190;SDS011;10753;52.304;20.990;2022-07-12T13:20:18;3.45;;;0.90;;
21190;SDS011;10753;52.304;20.990;2022-07-12T13:22:44;1.90;;;1.42;;
21190;SDS011;10753;52.304;20.990;2022-07-12T13:25:11;2.88;;;1.20;;
21190;SDS011;10753;52.304;20.990;2022-07-12T13:27:38;3.42;;;1.20;;
21190;SDS011;10753;52.304;20.990;2022-07-12T13:30:04;0.95;;;0.80;;
21190;SDS011;10753;52.304;20.990;2022-07-12T13:32:32;2.42;;;0.98;;
21190;SDS011;10753;52.304;20.990;2022-07-12T13:34:58;1.48;;;0.80;;
21190;SDS011;10753;52.304;20.990;2022-07-12T13:37:25;2.00;;;0.90;;
21190;SDS011;10753;52.304;20.990;2022-07-12T13:39:50;3.08;;;1.20;;
21190;SDS011;10753;52.304;20.990;2022-07-12T13:42:34;3.47;;;0.85;;
21190;SDS011;10753;52.304;20.990;2022-07-12T13:45:00;3.75;;;1.17;;
21190;SDS011;10753;52.304;20.990;2022-07-12T13:47:26;2.95;;;0.90;;
21190;SDS011;10753;52.304;20.990;2022-07-12T13:49:51;4.38;;;1.00;;
21190;SDS011;10753;52.304;20.990;2022-07-12T13:52:17;2.88;;;1.00;;
21190;SDS011;10753;52.304;20.990;2022-07-12T13:54:43;3.97;;;1.00;;
21190;SDS011;10753;52.304;20.990;2022-07-12T13:57:09;2.72;;;1.15;;
21190;SDS011;10753;52.304;20.990;2022-07-12T13:59:35;3.97;;;1.05;;
21190;SDS011;10753;52.304;20.990;2022-07-12T14:02:02;2.83;;;1.10;;
21190;SDS011;10753;52.304;20.990;2022-07-12T14:04:28;7.53;;;1.58;;
21190;SDS011;10753;52.304;20.990;2022-07-12T14:06:55;1.63;;;0.88;;
21190;SDS011;10753;52.304;20.990;2022-07-12T14:09:20;3.13;;;0.90;;
21190;SDS011;10753;52.304;20.990;2022-07-12T14:11:46;4.05;;;1.10;;
21190;SDS011;10753;52.304;20.990;2022-07-12T14:14:12;3.58;;;1.25;;
21190;SDS011;10753;52.304;20.990;2022-07-12T14:16:37;3.95;;;1.05;;
21190;SDS011;10753;52.304;20.990;2022-07-12T14:19:03;2.95;;;1.05;;
21190;SDS011;10753;52.304;20.990;2022-07-12T14:21:29;3.30;;;1.20;;
21190;SDS011;10753;52.304;20.990;2022-07-12T14:23:55;2.20;;;0.93;;
21190;SDS011;10753;52.304;20.990;2022-07-12T14:26:24;2.35;;;1.08;;
21190;SDS011;10753;52.304;20.990;2022-07-12T14:28:50;6.80;;;1.30;;
21190;SDS011;10753;52.304;20.990;2022-07-12T14:31:16;1.00;;;0.80;;
21190;SDS011;10753;52.304;20.990;2022-07-12T14:33:41;1.75;;;0.98;;
21190;SDS011;10753;52.304;20.990;2022-07-12T14:36:07;2.20;;;0.90;;
21190;SDS011;10753;52.304;20.990;2022-07-12T14:38:32;2.10;;;1.20;;
21190;SDS011;10753;52.304;20.990;2022-07-12T14:40:58;1.13;;;1.00;;
21190;SDS011;10753;52.304;20.990;2022-07-12T14:43:24;9.85;;;1.30;;
21190;SDS011;10753;52.304;20.990;2022-07-12T14:45:50;1.73;;;0.90;;
21190;SDS011;10753;52.304;20.990;2022-07-12T14:48:15;1.67;;;1.02;;
21190;SDS011;10753;52.304;20.990;2022-07-12T14:50:41;4.10;;;1.30;;
21190;SDS011;10753;52.304;20.990;2022-07-12T14:53:06;1.67;;;0.90;;
21190;SDS011;10753;52.304;20.990;2022-07-12T14:55:32;2.78;;;0.65;;
21190;SDS011;10753;52.304;20.990;2022-07-12T14:57:58;6.63;;;0.98;;